Historyczne dane pomiarowe

Dodano dane terminowe – wersja testowa.

Dane z okresu 1951-2019

Wersja bazy: 1.34 [2019-03-16, lista zmian], aktualizacja planowana na 2019-04-15

Dane meteo z obszaru Polski uzyskane na podstawie danych udostępnionych przez Instytut Meteorologii i Gospodarki Wodnej – Państwowy Instytut Badawczy.

 

Wybierz Datę:    

       

TemperaturaWilgotnośćWiatrCiśnienieOpadyŚniegCzas trwania zjawisk
 Stacja t tx tn tng RH VA  wxwx mslp ppp RRR   cm mm wxwxwxwxwxwxwx
1987-08-14 13.3 16.7 10.0- 92.0- 8.0 2.7---- 26.2------------
1987-08-13 13.5 18.5 8.2- 84.0- 3.7 3.0---- 0.0------------
1987-08-12 12.4 15.7 9.6- 89.8- 4.3 4.7---- 0.0------------
1987-08-11 13.1 15.7 11.4- 90.8- 6.7 2.7---- 4.9------------
1987-08-10 13.7 16.7 11.3- 92.5- 5.7 2.7---- 3.0------------
1987-08-09 14.7 18.7 10.9- 91.3- 4.7 2.7---- 1.6------------
1987-08-08 13.1 18.5 6.4- 79.5- 4.7 2.3---- 0.0------------
1987-08-07 12.5 16.2 9.0- 81.3- 3.3 3.7---- 0.0------------
1987-08-06 12.1 14.4 9.6- 94.5- 6.0 4.0---- 4.0------------
1987-08-05 12.0 14.0 9.6- 98.0- 6.7 4.3---- 18.6------------
1987-08-04 12.0 15.7 10.5- 91.5- 6.3 5.0---- 16.6------------
1987-08-03 12.9 16.4 10.5- 89.8- 5.3 3.3---- 1.6------------
1987-08-02 12.4 15.3 9.6- 87.5- 4.7 5.7---- 9.2------------
1987-08-01 14.5 17.7 12.0- 86.0- 5.3 4.3---- 4.7------------
1987-07-31 14.8 18.9 12.5- 86.8- 6.7 5.7---- 6.2------------
1987-07-30 16.0 21.7 10.5- 82.0- 4.0 2.7---- 4.7------------
1987-07-29 12.8 14.8 10.0- 92.5- 7.7 2.7---- 2.2------------
1987-07-28 13.5 17.1 10.4- 91.3- 6.0 5.3---- 5.7------------
1987-07-27 11.6 14.1 9.7- 88.8- 7.7 4.7---- 4.8------------
1987-07-26 12.4 15.5 9.1- 85.3- 5.7 4.7---- 12.6------------
1987-07-25 14.2 17.4 11.4- 85.5- 4.7 4.3---- 0.8------------
1987-07-24 16.9 19.8 14.2- 95.3- 6.0 2.7---- 8.2------------
1987-07-23 17.2 22.7 13.6- 91.3- 6.0 0.3---- 0.4------------
1987-07-22 16.2 21.1 13.1- 93.5- 6.3 2.3---- 0.0------------
1987-07-21 15.7 23.5 8.2- 89.0- 2.7 1.7---- 0.0------------
1987-07-20 15.4 19.5 13.5- 93.0- 6.7 1.7---- 0.3------------
1987-07-19 17.0 21.4 14.5- 94.5- 7.7 3.7---- 23.7------------
1987-07-18 19.3 23.5 15.2- 85.3- 6.7 4.0---- 0.1------------
1987-07-17 18.5 24.2 12.1- 79.0- 5.7 5.0---- 1.6------------
1987-07-16 17.3 23.4 11.0- 76.5- 4.3 3.7---- 0.0------------
1987-07-15 16.5 22.6 9.3- 76.8- 2.3 3.0---- 0.0------------
1987-07-14 15.3 19.3 9.6- 81.0- 1.3 3.0---- 0.0------------
1987-07-13 14.5 16.2 13.0- 84.3- 4.3 7.0---- 0.0------------
1987-07-12 15.8 19.9 13.7- 94.5- 4.7 2.3---- 32.1------------
1987-07-11 12.6 15.2 9.9- 93.8- 8.0 1.7---- 7.1------------
1987-07-10 12.7 16.2 9.6- 84.8- 3.0 5.7---- 0.9------------
1987-07-09 15.4 19.4 12.5- 85.3- 4.3 5.0---- 6.0------------
1987-07-08 19.7 26.0 15.1- 83.0- 5.3 2.3---- 0.0------------
1987-07-07 20.5 28.7 13.0- 68.3- 2.0 3.0---- 0.0------------
1987-07-06 16.0 22.5 7.1- 68.0- 0.3 1.0---- 0.0------------
1987-07-05 14.6 19.6 9.3- 72.3- 0.3 3.3---- 0.0------------
1987-07-04 14.5 17.4 11.0- 81.3- 3.7 3.3---- 0.0------------
1987-07-03 14.8 19.8 8.2- 78.5- 2.7 2.0---- 0.0------------
1987-07-02 14.3 17.6 10.1- 81.0- 3.0 3.7---- 0.0------------
1987-07-01 18.6 27.8 16.5- 87.5- 5.0 3.3---- 0.0------------
1987-06-30 23.7 29.8 17.5- 81.5- 4.0 1.7---- 1.6------------
1987-06-29 16.5 22.3 9.8- 93.3- 7.0 3.7---- 0.4------------
1987-06-28 13.5 16.8 10.2- 83.3- 5.0 3.0---- 0.3------------
1987-06-27 14.1 18.0 10.8- 81.0- 5.7 4.7---- 11.8------------
1987-06-26 14.3 19.7 7.1- 77.0- 6.0 3.3---- 0.2------------
1987-06-25 10.8 15.2 5.9- 83.5- 4.3 4.0---- 0.0------------
1987-06-24 12.5 14.4 11.0- 88.8- 5.7 3.3---- 0.9------------
1987-06-23 14.2 19.7 8.4- 88.3- 4.7 1.7---- 4.3------------
1987-06-22 12.5 14.9 10.8- 93.0- 5.3 3.3---- 0.5------------
1987-06-21 16.5 24.6 11.9- 87.3- 7.0 2.3---- 18.2------------
1987-06-20 15.7 22.7 7.2- 69.5- 3.7 2.3---- 0.0------------
1987-06-19 10.4 13.0 8.8- 94.0- 7.0 3.0---- 3.4------------
1987-06-18 11.5 16.2 6.5- 77.8- 4.7 4.7---- 3.4------------
1987-06-17 11.8 15.0 9.4- 78.3- 6.3 4.7---- 0.0------------
1987-06-16 10.2 12.5 8.2- 90.8- 8.0 7.0---- 0.3------------
457.5 ms

 

Źródłem pochodzenia danych jest Instytut Meteorologii i Gospodarki Wodnej – Państwowy Instytut Badawczy. Dane Instytutu Meteorologii i Gospodarki Wodnej – Państwowego Instytutu Badawczego zostały przetworzone.

Dane źródłowe można odnaleźć na stronie https://dane.imgw.pl